createdAt,value
2018-05-31T00:00:04.671Z,17.5
2018-05-31T00:01:04.397Z,17.437
2018-05-31T00:02:04.454Z,17.375
2018-05-31T00:03:04.096Z,17.25
2018-05-31T00:04:03.821Z,17.187
2018-05-31T00:05:03.481Z,17.062
2018-05-31T00:06:03.952Z,17.062
2018-05-31T00:07:03.585Z,17.125
2018-05-31T00:08:03.525Z,17.25
2018-05-31T00:09:03.920Z,17.25
2018-05-31T00:10:03.480Z,17.375
2018-05-31T00:11:03.862Z,17.437
2018-05-31T00:12:03.524Z,17.5
2018-05-31T00:13:04.021Z,17.5
2018-05-31T00:14:03.544Z,17.625
2018-05-31T00:15:04.343Z,17.687
2018-05-31T00:16:03.933Z,17.75
2018-05-31T00:17:04.586Z,17.875
2018-05-31T00:18:04.013Z,17.937
2018-05-31T00:19:04.956Z,18
2018-05-31T00:20:06.214Z,18
2018-05-31T00:21:03.926Z,18.062
2018-05-31T00:22:03.495Z,18.062
2018-05-31T00:23:03.749Z,18.062
2018-05-31T00:24:03.303Z,18.125
2018-05-31T00:25:04.241Z,18.187
2018-05-31T00:26:03.830Z,18.25
2018-05-31T00:27:04.376Z,18.25
2018-05-31T00:28:03.721Z,18.187
2018-05-31T00:29:03.352Z,18.187
2018-05-31T00:30:03.989Z,18.125
2018-05-31T00:31:03.872Z,18.187
2018-05-31T00:32:03.575Z,18.125
2018-05-31T00:33:04.234Z,18.062
2018-05-31T00:34:03.872Z,18.062
2018-05-31T00:35:03.523Z,18.062
2018-05-31T00:36:03.984Z,18.062
2018-05-31T00:37:03.744Z,18.062
2018-05-31T00:38:03.953Z,18.125
2018-05-31T00:39:04.129Z,18.062
2018-05-31T00:40:04.694Z,18.062
2018-05-31T00:41:04.254Z,18
2018-05-31T00:42:03.865Z,17.937
2018-05-31T00:43:03.472Z,17.875
2018-05-31T00:44:04.144Z,17.875
2018-05-31T00:45:03.965Z,17.875
2018-05-31T00:46:04.406Z,17.937
2018-05-31T00:47:03.591Z,17.937
2018-05-31T00:48:03.437Z,17.937
2018-05-31T00:49:04.135Z,17.937
2018-05-31T00:50:03.700Z,17.875
2018-05-31T00:51:04.337Z,17.812
2018-05-31T00:52:04.098Z,17.937
2018-05-31T00:53:03.982Z,18
2018-05-31T00:54:03.836Z,18.062
2018-05-31T00:55:03.749Z,18.062
2018-05-31T00:56:03.669Z,18.062
2018-05-31T00:57:03.746Z,18.125
2018-05-31T00:58:03.443Z,18.187
2018-05-31T00:59:04.083Z,18.125
2018-05-31T01:00:04.038Z,18.125
2018-05-31T01:01:04.058Z,18.125
2018-05-31T01:02:03.537Z,18.125
2018-05-31T01:03:04.088Z,18.125
2018-05-31T01:04:03.617Z,18
2018-05-31T01:05:05.116Z,17.937
2018-05-31T01:06:03.896Z,17.875
2018-05-31T01:07:03.366Z,17.875
2018-05-31T01:08:04.069Z,17.812
2018-05-31T01:09:04.140Z,17.75
2018-05-31T01:10:04.063Z,17.75
2018-05-31T01:11:03.775Z,17.812
2018-05-31T01:12:03.598Z,17.812
2018-05-31T01:13:04.130Z,17.875
2018-05-31T01:14:03.848Z,17.937
2018-05-31T01:15:03.840Z,17.875
2018-05-31T01:16:04.072Z,17.812
2018-05-31T01:17:04.073Z,17.75
2018-05-31T01:18:03.719Z,17.625
2018-05-31T01:19:03.359Z,17.562
2018-05-31T01:20:04.174Z,17.437
2018-05-31T01:21:03.953Z,17.437
2018-05-31T01:22:03.529Z,17.437
2018-05-31T01:23:04.114Z,17.375
2018-05-31T01:24:03.760Z,17.375
2018-05-31T01:25:03.595Z,17.312
2018-05-31T01:26:04.214Z,17.312
2018-05-31T01:27:03.810Z,17.312
2018-05-31T01:28:03.646Z,17.25
2018-05-31T01:29:03.936Z,17.125
2018-05-31T01:30:03.615Z,17.125
2018-05-31T01:31:03.656Z,17.062
2018-05-31T01:32:04.190Z,17
2018-05-31T01:33:03.720Z,16.937
2018-05-31T01:34:03.796Z,16.937
2018-05-31T01:35:03.399Z,17
2018-05-31T01:36:04.041Z,17.125
2018-05-31T01:37:03.713Z,17.125
2018-05-31T01:38:04.263Z,17.062
2018-05-31T01:39:04.102Z,17.062
2018-05-31T01:40:04.473Z,17
2018-05-31T01:41:03.924Z,16.937
2018-05-31T01:42:04.395Z,16.875
2018-05-31T01:43:04.363Z,16.812
2018-05-31T01:44:04.012Z,16.687
2018-05-31T01:45:03.330Z,16.687
2018-05-31T01:46:03.236Z,16.562
2018-05-31T01:47:03.701Z,16.5
2018-05-31T01:48:04.228Z,16.437
2018-05-31T01:49:03.803Z,16.437
2018-05-31T01:50:03.586Z,16.312
2018-05-31T01:51:04.089Z,16.437
2018-05-31T01:52:04.624Z,16.437
2018-05-31T01:53:03.489Z,16.437
2018-05-31T01:54:04.867Z,16.375
2018-05-31T01:55:04.105Z,16.312
2018-05-31T01:56:03.575Z,16.25
2018-05-31T01:57:04.132Z,16.25
2018-05-31T01:58:03.487Z,16.25
2018-05-31T01:59:04.060Z,16.187
2018-05-31T02:00:03.866Z,16.125
2018-05-31T02:01:03.813Z,16.125
2018-05-31T02:02:04.147Z,16.125
2018-05-31T02:03:04.350Z,16.125
2018-05-31T02:04:03.909Z,16.062
2018-05-31T02:05:04.593Z,16.062
2018-05-31T02:06:03.737Z,16.062
2018-05-31T02:07:03.360Z,16
2018-05-31T02:08:03.767Z,16
2018-05-31T02:09:04.697Z,16
2018-05-31T02:10:03.409Z,16
2018-05-31T02:11:04.058Z,16
2018-05-31T02:12:03.666Z,16
2018-05-31T02:13:03.440Z,16
2018-05-31T02:14:03.878Z,15.937
2018-05-31T02:15:04.272Z,16
2018-05-31T02:16:03.939Z,16
2018-05-31T02:17:03.679Z,16
2018-05-31T02:18:04.289Z,16
2018-05-31T02:19:03.965Z,16
2018-05-31T02:20:03.774Z,16
2018-05-31T02:21:04.148Z,16.125
2018-05-31T02:22:03.360Z,16.25
2018-05-31T02:23:03.908Z,16.312
2018-05-31T02:24:03.468Z,16.437
2018-05-31T02:25:03.877Z,16.562
2018-05-31T02:26:03.840Z,16.687
2018-05-31T02:27:03.537Z,16.687
2018-05-31T02:28:03.916Z,16.687
2018-05-31T02:29:03.757Z,16.625
2018-05-31T02:30:03.446Z,16.562
2018-05-31T02:31:04.108Z,16.562
2018-05-31T02:32:04.175Z,16.625
2018-05-31T02:33:03.745Z,16.562
2018-05-31T02:34:03.432Z,16.5
2018-05-31T02:35:03.842Z,16.437
2018-05-31T02:36:04.268Z,16.375
2018-05-31T02:37:03.563Z,16.375
2018-05-31T02:38:03.510Z,16.375
2018-05-31T02:39:04.314Z,16.312
2018-05-31T02:40:03.760Z,16.25
2018-05-31T02:41:03.630Z,16.187
2018-05-31T02:42:03.417Z,16.187
2018-05-31T02:43:03.926Z,16.125
2018-05-31T02:44:03.448Z,16.125
2018-05-31T02:45:03.665Z,16.125
2018-05-31T02:46:04.253Z,16.062
2018-05-31T02:47:04.051Z,16.062
2018-05-31T02:48:03.626Z,16
2018-05-31T02:49:04.376Z,16
2018-05-31T02:50:03.866Z,16
2018-05-31T02:51:03.594Z,16.125
2018-05-31T02:52:03.578Z,16.187
2018-05-31T02:53:04.167Z,16.25
2018-05-31T02:54:03.713Z,16.25
2018-05-31T02:55:03.378Z,16.437
2018-05-31T02:56:04.260Z,16.562
2018-05-31T02:57:03.366Z,16.687
2018-05-31T02:58:04.071Z,16.625
2018-05-31T02:59:03.535Z,16.625
2018-05-31T03:00:04.103Z,16.625
2018-05-31T03:01:03.441Z,16.5
2018-05-31T03:02:03.740Z,16.437
2018-05-31T03:03:04.374Z,16.437
2018-05-31T03:04:04.076Z,16.437
2018-05-31T03:05:04.340Z,16.437
2018-05-31T03:06:04.022Z,16.625
2018-05-31T03:07:03.575Z,16.687
2018-05-31T03:08:04.254Z,16.687
2018-05-31T03:09:04.012Z,16.687
2018-05-31T03:10:03.531Z,16.625
2018-05-31T03:11:03.684Z,16.562
2018-05-31T03:12:05.046Z,16.562
2018-05-31T03:13:04.120Z,16.625
2018-05-31T03:14:03.841Z,16.625
2018-05-31T03:15:03.765Z,16.812
2018-05-31T03:16:04.104Z,16.875
2018-05-31T03:17:03.659Z,16.937
2018-05-31T03:18:04.284Z,16.937
2018-05-31T03:19:03.750Z,17.062
2018-05-31T03:20:04.285Z,17.062
2018-05-31T03:21:03.402Z,17.125
2018-05-31T03:22:03.901Z,17.187
2018-05-31T03:23:04.079Z,17.25
2018-05-31T03:24:03.289Z,17.375
2018-05-31T03:25:03.803Z,17.437
2018-05-31T03:26:04.100Z,17.437
2018-05-31T03:27:03.576Z,17.5
2018-05-31T03:28:04.075Z,17.625
2018-05-31T03:29:03.623Z,17.75
2018-05-31T03:30:04.122Z,17.812
2018-05-31T03:31:03.646Z,17.937
2018-05-31T03:32:03.522Z,18.062
2018-05-31T03:33:04.039Z,18.25
2018-05-31T03:34:03.607Z,18.437
2018-05-31T03:35:04.061Z,18.5
2018-05-31T03:36:03.909Z,18.625
2018-05-31T03:37:03.464Z,18.687
2018-05-31T03:38:04.121Z,18.687
2018-05-31T03:39:03.884Z,18.812
2018-05-31T03:40:03.837Z,18.937
2018-05-31T03:41:03.778Z,19.062
2018-05-31T03:42:04.271Z,19.125
2018-05-31T03:43:03.830Z,19.25
2018-05-31T03:44:03.661Z,19.437
2018-05-31T03:45:04.319Z,19.625
2018-05-31T03:46:03.734Z,19.75
2018-05-31T03:47:03.431Z,19.875
2018-05-31T03:48:04.124Z,20
2018-05-31T03:49:03.551Z,20.062
2018-05-31T03:50:03.514Z,20.187
2018-05-31T03:51:04.005Z,20.312
2018-05-31T03:52:03.632Z,20.437
2018-05-31T03:53:04.103Z,20.625
2018-05-31T03:54:03.888Z,20.75
2018-05-31T03:55:04.041Z,20.812
2018-05-31T03:56:03.331Z,20.937
2018-05-31T03:57:04.055Z,20.937
2018-05-31T03:58:03.596Z,21.062
2018-05-31T03:59:03.359Z,21.062
2018-05-31T04:00:04.196Z,21.125
2018-05-31T04:01:03.830Z,21.187
2018-05-31T04:02:03.990Z,21.312
2018-05-31T04:03:03.664Z,21.375
2018-05-31T04:04:03.331Z,21.437
2018-05-31T04:05:03.876Z,21.562
2018-05-31T04:06:03.511Z,21.687
2018-05-31T04:07:04.753Z,21.687
2018-05-31T04:08:03.446Z,21.625
2018-05-31T04:09:04.551Z,21.562
2018-05-31T04:10:03.752Z,21.5
2018-05-31T04:11:03.364Z,21.562
2018-05-31T04:12:03.806Z,21.687
2018-05-31T04:13:03.557Z,21.75
2018-05-31T04:14:03.764Z,21.875
2018-05-31T04:15:03.971Z,21.937
2018-05-31T04:16:03.604Z,22
2018-05-31T04:17:04.480Z,22.125
2018-05-31T04:18:04.224Z,22.187
2018-05-31T04:19:03.694Z,22.25
2018-05-31T04:20:04.308Z,22.312
2018-05-31T04:21:03.894Z,22.437
2018-05-31T04:22:03.666Z,22.625
2018-05-31T04:23:04.156Z,22.875
2018-05-31T04:24:03.811Z,23.062
2018-05-31T04:25:04.070Z,23.187
2018-05-31T04:26:03.993Z,23.375
2018-05-31T04:27:03.503Z,23.687
2018-05-31T04:28:04.117Z,23.875
2018-05-31T04:29:03.788Z,24.062
2018-05-31T04:30:03.537Z,24.25
2018-05-31T04:31:03.501Z,24.375
2018-05-31T04:32:04.093Z,24.625
2018-05-31T04:33:04.173Z,24.687
2018-05-31T04:34:03.793Z,24.75
2018-05-31T04:35:03.592Z,24.812
2018-05-31T04:36:03.669Z,24.875
2018-05-31T04:37:03.445Z,25
2018-05-31T04:38:03.768Z,25
2018-05-31T04:39:04.455Z,24.937
2018-05-31T04:40:03.868Z,24.75
2018-05-31T04:41:04.373Z,24.687
2018-05-31T04:42:04.034Z,24.687
2018-05-31T04:43:03.312Z,24.687
2018-05-31T04:44:04.167Z,24.625
2018-05-31T04:45:03.663Z,24.5
2018-05-31T04:46:03.705Z,24.437
2018-05-31T04:47:03.255Z,24.5
2018-05-31T04:48:03.771Z,24.625
2018-05-31T04:49:04.291Z,24.562
2018-05-31T04:50:03.580Z,24.562
2018-05-31T04:51:03.852Z,24.562
2018-05-31T04:52:03.431Z,24.562
2018-05-31T04:53:04.359Z,24.687
2018-05-31T04:54:03.853Z,24.937
2018-05-31T04:55:03.430Z,25.125
2018-05-31T04:56:03.987Z,25.25
2018-05-31T04:57:05.670Z,25.437
2018-05-31T04:58:03.824Z,25.5
2018-05-31T04:59:04.146Z,25.625
2018-05-31T05:00:03.625Z,25.75
2018-05-31T05:01:03.534Z,25.812
2018-05-31T05:02:03.839Z,26
2018-05-31T05:03:04.243Z,26
2018-05-31T05:04:04.042Z,26.062
2018-05-31T05:05:03.699Z,26.062
2018-05-31T05:06:04.482Z,26.125
2018-05-31T05:07:04.740Z,26.062
2018-05-31T05:08:04.068Z,26.312
2018-05-31T05:09:03.802Z,26.5
2018-05-31T05:10:04.087Z,26.437
2018-05-31T05:11:04.151Z,26.5
2018-05-31T05:12:03.759Z,26.812
2018-05-31T05:13:03.649Z,26.937
2018-05-31T05:14:04.010Z,27
2018-05-31T05:15:03.650Z,27.062
2018-05-31T05:16:04.279Z,27.062
2018-05-31T05:17:04.424Z,27.062
2018-05-31T05:18:04.145Z,27
2018-05-31T05:19:04.088Z,26.812
2018-05-31T05:20:05.009Z,27
2018-05-31T05:21:04.167Z,27.25
2018-05-31T05:22:03.507Z,27.375
2018-05-31T05:23:04.203Z,27.187
2018-05-31T05:24:03.709Z,27.062
2018-05-31T05:25:04.217Z,27.062
2018-05-31T05:26:04.675Z,27.187
2018-05-31T05:27:03.963Z,27.187
2018-05-31T05:28:03.437Z,27.25
2018-05-31T05:29:03.893Z,27.25
2018-05-31T05:30:04.468Z,27.375
2018-05-31T05:31:04.059Z,27.562
2018-05-31T05:32:03.662Z,27.687
2018-05-31T05:33:03.353Z,27.875
2018-05-31T05:34:03.904Z,28.062
2018-05-31T05:35:04.171Z,28.125
2018-05-31T05:36:08.898Z,28.125
2018-05-31T05:37:03.648Z,28.125
2018-05-31T05:38:04.326Z,28.062
2018-05-31T05:39:04.130Z,28.187
2018-05-31T05:40:03.706Z,28.375
2018-05-31T05:41:04.140Z,28.562
2018-05-31T05:42:03.645Z,28.687
2018-05-31T05:43:05.164Z,28.875
2018-05-31T05:44:03.692Z,28.937
2018-05-31T05:45:04.273Z,29.062
2018-05-31T05:46:03.946Z,29.125
2018-05-31T05:47:04.117Z,29.125
2018-05-31T05:48:03.718Z,29
2018-05-31T05:49:03.376Z,29.187
2018-05-31T05:50:04.224Z,29.25
2018-05-31T05:51:03.411Z,29.375
2018-05-31T05:52:03.951Z,29.562
2018-05-31T05:53:04.421Z,29.75
2018-05-31T05:54:03.748Z,29.687
2018-05-31T05:55:03.836Z,29.687
2018-05-31T05:56:03.564Z,29.437
2018-05-31T05:57:04.118Z,29.375
2018-05-31T05:58:03.745Z,29.125
2018-05-31T05:59:04.175Z,28.937
2018-05-31T06:00:04.103Z,28.625
2018-05-31T06:01:04.005Z,28.5
2018-05-31T06:02:03.391Z,28.437
2018-05-31T06:03:03.931Z,28.437
2018-05-31T06:04:03.633Z,28.562
2018-05-31T06:05:04.211Z,28.562
2018-05-31T06:06:04.394Z,28.75
2018-05-31T06:07:03.719Z,29
2018-05-31T06:08:03.394Z,29.25
2018-05-31T06:09:03.985Z,29.062
2018-05-31T06:10:03.610Z,28.875
2018-05-31T06:11:03.238Z,28.937
2018-05-31T06:12:04.048Z,28.875
2018-05-31T06:13:04.745Z,29.062
2018-05-31T06:14:04.179Z,29.187
2018-05-31T06:15:03.655Z,29.187
2018-05-31T06:16:04.069Z,29.062
2018-05-31T06:17:04.202Z,29.062
2018-05-31T06:18:03.569Z,29.25
2018-05-31T06:19:03.945Z,29.437
2018-05-31T06:20:04.470Z,29.5
2018-05-31T06:21:05.543Z,29.562
2018-05-31T06:22:04.013Z,29.437
2018-05-31T06:23:04.133Z,29.375
2018-05-31T06:24:03.389Z,29.5
2018-05-31T06:25:03.920Z,29.75
2018-05-31T06:26:03.617Z,30
2018-05-31T06:27:04.115Z,30.312
2018-05-31T06:28:04.429Z,30.562
2018-05-31T06:29:04.167Z,30.875
2018-05-31T06:30:03.801Z,31.187
2018-05-31T06:31:03.717Z,31.25
2018-05-31T06:32:03.302Z,31.562
2018-05-31T06:33:04.009Z,31.75
2018-05-31T06:34:04.279Z,31.875
2018-05-31T06:35:03.533Z,32
2018-05-31T06:36:04.027Z,32.125
2018-05-31T06:37:03.842Z,32.25
2018-05-31T06:38:04.362Z,32.25
2018-05-31T06:39:04.158Z,32.312
2018-05-31T06:40:03.662Z,32.437
2018-05-31T06:41:03.292Z,32.25
2018-05-31T06:42:03.859Z,32
2018-05-31T06:43:03.373Z,31.937
2018-05-31T06:44:03.984Z,31.75
2018-05-31T06:45:03.694Z,31.937
2018-05-31T06:46:03.797Z,32.125
2018-05-31T06:47:03.941Z,32.375
2018-05-31T06:48:03.454Z,32.562
2018-05-31T06:49:03.853Z,32.812
2018-05-31T06:50:04.305Z,33
2018-05-31T06:51:03.795Z,33.062
2018-05-31T06:52:04.157Z,33.187
2018-05-31T06:53:03.904Z,33
2018-05-31T06:54:03.548Z,32.687
2018-05-31T06:55:04.111Z,32.812
2018-05-31T06:56:03.783Z,32.937
2018-05-31T06:57:03.883Z,33
2018-05-31T06:58:03.577Z,33.187
2018-05-31T06:59:04.245Z,33.437
2018-05-31T07:00:04.083Z,33.625
2018-05-31T07:01:03.792Z,33.375
2018-05-31T07:02:04.081Z,33.25
2018-05-31T07:03:03.977Z,33.062
2018-05-31T07:04:03.581Z,33.125
2018-05-31T07:05:04.147Z,33.187
2018-05-31T07:06:03.923Z,33.187
2018-05-31T07:07:03.423Z,33.187
2018-05-31T07:08:03.683Z,32.937
2018-05-31T07:09:04.543Z,32.5
2018-05-31T07:10:04.026Z,32.437
2018-05-31T07:11:03.678Z,32.375
2018-05-31T07:12:04.383Z,32.5
2018-05-31T07:13:03.815Z,32.625
2018-05-31T07:14:03.663Z,32.75
2018-05-31T07:15:04.219Z,32.875
2018-05-31T07:16:04.083Z,33.062
2018-05-31T07:17:03.778Z,33.25
2018-05-31T07:18:04.046Z,33.437
2018-05-31T07:19:03.725Z,33.5
2018-05-31T07:20:04.186Z,33.5
2018-05-31T07:21:03.663Z,33.625
2018-05-31T07:22:04.972Z,33.5
2018-05-31T07:23:03.382Z,33.562
2018-05-31T07:24:04.321Z,33.812
2018-05-31T07:25:04.006Z,33.937
2018-05-31T07:26:04.450Z,34
2018-05-31T07:27:03.979Z,33.937
2018-05-31T07:28:05.657Z,34.187
2018-05-31T07:29:04.253Z,34.375
2018-05-31T07:30:03.974Z,34.312
2018-05-31T07:31:04.090Z,34.312
2018-05-31T07:32:03.764Z,34.25
2018-05-31T07:33:03.423Z,34.375
2018-05-31T07:34:03.953Z,34.562
2018-05-31T07:35:03.598Z,35
2018-05-31T07:36:04.204Z,35.062
2018-05-31T07:37:03.927Z,34.625
2018-05-31T07:38:03.550Z,34.312
2018-05-31T07:39:04.837Z,34
2018-05-31T07:40:03.861Z,33.937
2018-05-31T07:41:04.179Z,33.875
2018-05-31T07:42:03.864Z,33.75
2018-05-31T07:43:03.988Z,33.687
2018-05-31T07:44:03.590Z,33.75
2018-05-31T07:45:04.969Z,33.812
2018-05-31T07:46:06.091Z,33.812
2018-05-31T07:47:04.137Z,33.812
2018-05-31T07:48:03.751Z,33.625
2018-05-31T07:49:03.455Z,33.75
2018-05-31T07:50:04.111Z,33.875
2018-05-31T07:51:03.856Z,34
2018-05-31T07:52:03.508Z,34.187
2018-05-31T07:53:04.406Z,34.375
2018-05-31T07:54:04.268Z,34.625
2018-05-31T07:55:03.411Z,34.812
2018-05-31T07:56:04.294Z,34.812
2018-05-31T07:57:03.785Z,34.625
2018-05-31T07:58:03.486Z,34.5
2018-05-31T07:59:04.220Z,34.437
2018-05-31T08:00:04.354Z,34.5
2018-05-31T08:01:04.224Z,34.437
2018-05-31T08:02:03.885Z,34.375
2018-05-31T08:03:04.344Z,34.25
2018-05-31T08:04:04.246Z,34.25
2018-05-31T08:05:03.770Z,34.187
2018-05-31T08:06:03.361Z,34.25
2018-05-31T08:07:03.878Z,34.375
2018-05-31T08:08:03.566Z,34.562
2018-05-31T08:09:04.728Z,34.437
2018-05-31T08:10:04.421Z,34.562
2018-05-31T08:11:05.419Z,34.687
2018-05-31T08:12:03.692Z,34.687
2018-05-31T08:13:04.286Z,34.5
2018-05-31T08:14:03.827Z,34.375
2018-05-31T08:15:03.617Z,34.187
2018-05-31T08:16:04.207Z,33.75
2018-05-31T08:17:03.926Z,33.187
2018-05-31T08:18:03.587Z,32.937
2018-05-31T08:19:04.052Z,32.812
2018-05-31T08:20:03.644Z,32.812
2018-05-31T08:21:04.136Z,32.75
2018-05-31T08:22:03.696Z,32.812
2018-05-31T08:23:04.368Z,32.75
2018-05-31T08:24:04.026Z,32.812
2018-05-31T08:25:03.824Z,33
2018-05-31T08:26:03.399Z,33.25
2018-05-31T08:27:04.115Z,33.5
2018-05-31T08:28:03.607Z,33.625
2018-05-31T08:29:04.153Z,33.812
2018-05-31T08:30:03.972Z,33.812
2018-05-31T08:32:03.987Z,33.625
2018-05-31T08:33:03.645Z,33.5
2018-05-31T08:34:04.189Z,33.5
2018-05-31T08:35:04.012Z,33.25
2018-05-31T08:36:03.604Z,33.187
2018-05-31T08:37:04.192Z,32.812
2018-05-31T08:38:04.088Z,32.687
2018-05-31T08:39:03.920Z,32.5
2018-05-31T08:40:03.538Z,32.25
2018-05-31T08:41:04.273Z,32.187
2018-05-31T08:42:03.977Z,32.062
2018-05-31T08:43:03.512Z,32.125
2018-05-31T08:44:03.834Z,32
2018-05-31T08:45:03.524Z,32
2018-05-31T08:46:04.291Z,31.937
2018-05-31T08:47:03.896Z,31.875
2018-05-31T08:48:03.574Z,31.875
2018-05-31T08:49:04.224Z,31.937
2018-05-31T08:50:03.741Z,32.062
2018-05-31T08:51:05.631Z,32
2018-05-31T08:52:03.791Z,32
2018-05-31T08:53:03.414Z,31.5
2018-05-31T08:54:03.930Z,31.312
2018-05-31T08:55:03.423Z,31.25
2018-05-31T08:56:04.193Z,31.375
2018-05-31T08:57:04.176Z,31.312
2018-05-31T08:58:03.922Z,31.5
2018-05-31T08:59:03.763Z,31.5
2018-05-31T09:00:04.392Z,31.562
2018-05-31T09:01:03.903Z,31.5
2018-05-31T09:02:03.474Z,31.562
2018-05-31T09:03:04.052Z,31.75
2018-05-31T09:04:03.541Z,32
2018-05-31T09:05:04.281Z,32.062
2018-05-31T09:06:03.821Z,31.875
2018-05-31T09:07:03.406Z,31.75
2018-05-31T09:08:03.962Z,31.875
2018-05-31T09:09:03.899Z,32
2018-05-31T09:10:03.398Z,31.937
2018-05-31T09:11:04.051Z,32.062
2018-05-31T09:12:03.547Z,32.312
2018-05-31T09:13:04.092Z,32.437
2018-05-31T09:14:03.564Z,32.25
2018-05-31T09:15:04.339Z,32.187
2018-05-31T09:16:04.066Z,32.062
2018-05-31T09:17:03.962Z,31.875
2018-05-31T09:18:03.560Z,31.812
2018-05-31T09:19:04.059Z,31.875
2018-05-31T09:20:03.667Z,32
2018-05-31T09:21:04.023Z,32.125
2018-05-31T09:22:03.619Z,32.062
2018-05-31T09:23:03.517Z,31.875
2018-05-31T09:24:05.049Z,31.812
2018-05-31T09:25:04.214Z,31.937
2018-05-31T09:26:03.850Z,32.125
2018-05-31T09:27:03.768Z,32.187
2018-05-31T09:28:03.420Z,32.312
2018-05-31T09:29:04.074Z,32.437
2018-05-31T09:30:04.076Z,32.562
2018-05-31T09:31:04.025Z,32.687
2018-05-31T09:32:03.650Z,32.875
2018-05-31T09:33:04.079Z,33.062
2018-05-31T09:34:04.170Z,33.375
2018-05-31T09:35:03.662Z,33.375
2018-05-31T09:36:04.385Z,33.625
2018-05-31T09:37:03.756Z,33.687
2018-05-31T09:38:04.403Z,33.437
2018-05-31T09:39:04.336Z,33.25
2018-05-31T09:40:04.243Z,33.062
2018-05-31T09:41:03.511Z,32.75
2018-05-31T09:42:04.105Z,32.75
2018-05-31T09:43:03.701Z,32.687
2018-05-31T09:44:04.077Z,32.625
2018-05-31T09:45:03.872Z,32.562
2018-05-31T09:46:04.157Z,32.5
2018-05-31T09:47:03.751Z,32.5
2018-05-31T09:48:04.132Z,32.437
2018-05-31T09:49:03.819Z,32.5
2018-05-31T09:50:04.076Z,32.312
2018-05-31T09:51:03.823Z,32.187
2018-05-31T09:52:03.382Z,32.062
2018-05-31T09:53:03.908Z,32.187
2018-05-31T09:54:03.647Z,32.25
2018-05-31T09:55:03.839Z,32.375
2018-05-31T09:56:03.569Z,32.375
2018-05-31T09:57:04.214Z,32.437
2018-05-31T09:58:03.781Z,32.375
2018-05-31T09:59:03.630Z,32.437
2018-05-31T10:00:03.588Z,32.437
2018-05-31T10:01:04.381Z,32.25
2018-05-31T10:02:03.820Z,32.312
2018-05-31T10:03:03.606Z,32.5
2018-05-31T10:04:04.438Z,32.625
2018-05-31T10:05:04.305Z,32.687
2018-05-31T10:06:03.767Z,32.687
2018-05-31T10:07:03.547Z,32.687
2018-05-31T10:08:04.210Z,32.562
2018-05-31T10:09:04.376Z,32.5
2018-05-31T10:10:03.976Z,32.5
2018-05-31T10:11:03.812Z,32.312
2018-05-31T10:12:03.722Z,32.187
2018-05-31T10:13:04.063Z,32.125
2018-05-31T10:14:03.548Z,32.062
2018-05-31T10:15:04.468Z,32.125
2018-05-31T10:16:03.583Z,32.25
2018-05-31T10:17:04.841Z,32.25
2018-05-31T10:18:04.167Z,32.187
2018-05-31T10:19:03.774Z,32.375
2018-05-31T10:20:04.220Z,32.437
2018-05-31T10:21:03.710Z,32.375
2018-05-31T10:22:03.757Z,32.25
2018-05-31T10:23:03.318Z,32.187
2018-05-31T10:24:03.940Z,32.25
2018-05-31T10:25:03.602Z,32.312
2018-05-31T10:26:04.109Z,32.25
2018-05-31T10:27:03.756Z,32.187
2018-05-31T10:28:04.032Z,32.062
2018-05-31T10:29:03.569Z,31.937
2018-05-31T10:30:03.847Z,31.937
2018-05-31T10:31:03.452Z,32.125
2018-05-31T10:32:04.224Z,32.125
2018-05-31T10:33:03.763Z,32.062
2018-05-31T10:34:03.343Z,31.875
2018-05-31T10:35:03.728Z,31.75
2018-05-31T10:36:04.238Z,31.562
2018-05-31T10:37:04.387Z,31.437
2018-05-31T10:38:03.939Z,31.5
2018-05-31T10:39:03.820Z,31.562
2018-05-31T10:40:05.367Z,31.625
2018-05-31T10:41:04.954Z,31.687
2018-05-31T10:42:03.426Z,31.75
2018-05-31T10:43:04.091Z,31.875
2018-05-31T10:44:03.712Z,31.875
2018-05-31T10:45:04.060Z,31.937
2018-05-31T10:46:03.491Z,32.062
2018-05-31T10:47:04.542Z,32
2018-05-31T10:48:04.013Z,31.875
2018-05-31T10:49:03.434Z,31.687
2018-05-31T10:50:04.015Z,31.687
2018-05-31T10:51:03.358Z,31.75
2018-05-31T10:52:03.367Z,31.75
2018-05-31T10:53:03.790Z,31.687
2018-05-31T10:54:04.182Z,31.687
2018-05-31T10:55:03.601Z,31.687
2018-05-31T10:56:03.897Z,31.812
2018-05-31T10:57:04.160Z,31.937
2018-05-31T10:58:03.790Z,32.062
2018-05-31T10:59:04.177Z,32
2018-05-31T11:00:04.004Z,31.937
2018-05-31T11:01:03.772Z,31.812
2018-05-31T11:02:04.132Z,31.812
2018-05-31T11:03:03.663Z,31.812
2018-05-31T11:04:04.264Z,31.812
2018-05-31T11:05:04.082Z,31.75
2018-05-31T11:06:03.740Z,31.812
2018-05-31T11:07:03.453Z,31.937
2018-05-31T11:08:03.870Z,32.125
2018-05-31T11:09:04.808Z,32.25
2018-05-31T11:10:04.183Z,32.25
2018-05-31T11:11:03.972Z,32.312
2018-05-31T11:12:03.785Z,32.25
2018-05-31T11:13:03.460Z,32.187
2018-05-31T11:14:03.945Z,32.187
2018-05-31T11:15:03.777Z,32.125
2018-05-31T11:16:04.222Z,32.187
2018-05-31T11:17:04.223Z,32.312
2018-05-31T11:18:03.509Z,32.437
2018-05-31T11:19:03.903Z,32.375
2018-05-31T11:20:03.419Z,32.187
2018-05-31T11:21:04.219Z,32.187
2018-05-31T11:22:03.358Z,32.187
2018-05-31T11:23:03.617Z,32.25
2018-05-31T11:24:03.365Z,32.187
2018-05-31T11:25:04.015Z,32.187
2018-05-31T11:26:03.439Z,32.125
2018-05-31T11:27:04.049Z,32.062
2018-05-31T11:28:04.087Z,32.187
2018-05-31T11:29:03.683Z,32.312
2018-05-31T11:30:03.589Z,32.562
2018-05-31T11:31:03.622Z,32.5
2018-05-31T11:32:04.224Z,32.437
2018-05-31T11:33:03.880Z,32.437
2018-05-31T11:34:03.567Z,32.687
2018-05-31T11:35:03.542Z,32.875
2018-05-31T11:36:04.227Z,32.937
2018-05-31T11:37:03.849Z,32.937
2018-05-31T11:38:03.919Z,32.937
2018-05-31T11:39:03.785Z,33.062
2018-05-31T11:40:04.193Z,33.062
2018-05-31T11:41:03.696Z,33.125
2018-05-31T11:42:04.165Z,33.062
2018-05-31T11:43:03.736Z,32.937
2018-05-31T11:44:04.255Z,32.812
2018-05-31T11:45:04.066Z,32.562
2018-05-31T11:46:03.570Z,32.5
2018-05-31T11:47:04.207Z,32.5
2018-05-31T11:48:03.855Z,32.562
2018-05-31T11:49:04.372Z,32.625
2018-05-31T11:50:03.820Z,32.687
2018-05-31T11:51:04.230Z,32.687
2018-05-31T11:52:03.911Z,32.812
2018-05-31T11:53:03.493Z,33
2018-05-31T11:54:04.137Z,33.125
2018-05-31T11:55:03.721Z,33.187
2018-05-31T11:56:03.623Z,33.25
2018-05-31T11:57:04.132Z,33.437
2018-05-31T11:58:03.981Z,33.562
2018-05-31T11:59:03.577Z,33.75
2018-05-31T12:00:04.220Z,33.75
2018-05-31T12:01:03.655Z,33.75
2018-05-31T12:02:03.716Z,33.75
2018-05-31T12:03:03.349Z,33.812
2018-05-31T12:04:03.315Z,33.875
2018-05-31T12:05:04.223Z,33.875
2018-05-31T12:06:03.875Z,33.937
2018-05-31T12:07:03.487Z,34
2018-05-31T12:08:03.852Z,34.125
2018-05-31T12:09:03.850Z,34.25
2018-05-31T12:10:03.336Z,34.437
2018-05-31T12:11:04.056Z,34.562
2018-05-31T12:12:03.445Z,34.562
2018-05-31T12:13:03.955Z,34.562
2018-05-31T12:14:03.449Z,34.562
2018-05-31T12:15:03.734Z,34.687
2018-05-31T12:16:03.901Z,34.812
2018-05-31T12:17:03.618Z,34.875
2018-05-31T12:18:04.217Z,35
2018-05-31T12:19:03.757Z,35
2018-05-31T12:20:03.377Z,35
2018-05-31T12:21:04.115Z,34.812
2018-05-31T12:22:04.169Z,34.687
2018-05-31T12:23:03.759Z,34.687
2018-05-31T12:24:04.297Z,34.75
2018-05-31T12:25:03.850Z,34.75
2018-05-31T12:26:03.327Z,34.687
2018-05-31T12:27:03.922Z,34.75
2018-05-31T12:28:03.498Z,34.75
2018-05-31T12:29:04.073Z,34.75
2018-05-31T12:30:03.678Z,34.812
2018-05-31T12:31:04.293Z,34.75
2018-05-31T12:32:03.831Z,34.875
2018-05-31T12:33:03.711Z,34.875
2018-05-31T12:34:04.098Z,34.937
2018-05-31T12:35:04.083Z,35
2018-05-31T12:36:03.842Z,35.062
2018-05-31T12:37:03.688Z,35
2018-05-31T12:38:04.285Z,35
2018-05-31T12:39:04.183Z,34.75
2018-05-31T12:40:03.993Z,34.562
2018-05-31T12:41:03.573Z,34.5
2018-05-31T12:42:04.012Z,34.5
2018-05-31T12:43:03.432Z,34.687